Cherokee, IA (51012)

7:42 AM CDT on July 25, 2014 (GMT -0500)
Cherokee Municipal (KCKP) Elev 1227 ft | 42.73 °N, 95.56 °W | Change Station

Current weather conditions updated 7 minutes ago

Overcast
Overcast
65 °F
Feels Like 65 °F
N
12
Wind Variable Wind from SE
Gusts 20 mph

Today is forecast to be Much Warmer than yesterday.

Today
High -- | Low -- °F
--% Chance of Precip.
Yesterday
High -- | Low -- °F
Precip. -- in
6:06 AM 8:50 PM
Waning Crescent, 2% visible
Pressure 29.87 in
Visibility 10.0 miles
Clouds Overcast 4200 ft
Dew Point 61 °F
Humidity 87%
Rainfall 0.00 in
Snow Depth Not available.
UV 0 out of 12
Pollen 4.80 out of 12
Air Quality Not available.
Flu Activity Not available.
METAR KCKP 251235Z AUTO 13010G17KT 10SM OVC042 18/16 A2987 RMK AO2 T01820160

More Conditions Fewer Conditions

Pressure 29.87 in
Visibility 10.0 miles
Clouds Overcast 4200 ft
Dew Point 61 °F
Humidity 87%
Rainfall 0.00 in
Snow Depth Not available.
UV 0 out of 12
Pollen 4.80 out of 12
Air Quality Not available.
Flu Activity Not available.
METAR KCKP 251235Z AUTO 13010G17KT 10SM OVC042 18/16 A2987 RMK AO2 T01820160

More Conditions Fewer Conditions

10-Day Weather Forecast

Almanac

Astronomy

Jul. 25, 2014 Rise Set
Actual Time 6:06 AM CDT 8:50 PM CDT
Civil Twilight 5:33 AM CDT 9:22 PM CDT
Nautical Twilight 4:52 AM CDT 10:04 PM CDT
Astronomical Twilight 4:05 AM CDT 10:51 PM CDT
Moon 5:07 AM CDT 7:46 PM CDT
Length of Visible Light 15h 49m
Length of Day
14h 43m
Tomorrow will be 1m 59s shorter.
Waning Crescent, 2% of the Moon is Illuminated
Today
Waning Crescent
Jul 26
New
Aug 3
First Quarter
Aug 10
Full
Aug 17
Last Quarter

Today's Extremes

State Highs State Lows

Community

WunderPhotos

Upload Photos

1,737,308 photos uploaded!

Nearby

Snow Depth

Station Depth Elevation
No new snow has been reported.

Earthquake Activity

City Distance Mag. Time & Date
No recent earthquake activity has been reported nearby.
Minimum magnitude displayed is 2.5.

Coastal Water Temperatures

Place Temperature
No Stations Reporting

Nearby Weather Stations

Station Location Temp. Dew Point Humidity Wind Precip. Elev Updated Type
Ricklefs Home, Storm Lake, IA 65.7 °F 61 °F 85% ESE  at  6.0 mph 0.00 in / hr 1414 ft 7:42 AM CDT Rapid Fire
MesoWest SHAGBARK HILLS , Correctionville, IA 63 °F 60 °F 88% SE  at  2 mph 0.00 in / hr 1399 ft 6:00 AM CDT MADIS

Show More Stations Show Fewer Stations